KOLY/OLY METAR and TAF weather

Enter ICAO airport designator
Station Type Date Time Source
KOLY METAR 2021/09/24 02:55 UTC NOAA

KOLY 240255Z AUTO 00000KT 10SM CLR 11/11 A3006 RMK AO2 T01130107


Station Type Date Time Source
KOLY Decoded METAR 2021/09/24 02:55 UTC NOAA

Olney-Noble, Olney-Noble Airport, IL, United States (KOLY) 38-43-19N 088-10-35W
Sep 23, 2021 - 10:55 PM EDT / 2021.09.24 0255 UTC
Wind: Calm:0
Visibility: 10 mile(s):0
Sky conditions: clear
Temperature: 52.3 F (11.3 C)
Dew Point: 51.3 F (10.7 C)
Relative Humidity: 96%
Pressure (altimeter): 30.06 in. Hg (1017 hPa)
ob: KOLY 240255Z AUTO 00000KT 10SM CLR 11/11 A3006 RMK AO2 T01130107
cycle: 3

Station Type Date Time Source
KOLY TAF UTC NOAA

Error!

Example: see airport list